createdAt,value
2022-09-30T00:01:40.423Z,99.90
2022-09-30T00:04:10.993Z,99.90
2022-09-30T00:06:38.725Z,99.90
2022-09-30T00:09:07.031Z,99.90
2022-09-30T00:11:38.100Z,99.90
2022-09-30T00:14:06.867Z,99.90
2022-09-30T00:16:38.050Z,99.90
2022-09-30T00:19:06.211Z,99.90
2022-09-30T00:21:34.897Z,99.90
2022-09-30T00:24:03.230Z,99.90
2022-09-30T00:26:31.094Z,99.90
2022-09-30T00:29:00.712Z,99.90
2022-09-30T00:31:30.809Z,99.90
2022-09-30T00:34:10.291Z,99.90
2022-09-30T00:36:41.983Z,99.90
2022-09-30T00:39:12.573Z,99.90
2022-09-30T00:41:40.395Z,99.90
2022-09-30T00:44:46.434Z,99.90
2022-09-30T00:47:31.670Z,99.90
2022-09-30T00:50:03.715Z,99.90
2022-09-30T00:52:33.105Z,99.90
2022-09-30T00:55:03.155Z,99.90
2022-09-30T00:57:31.378Z,99.90
2022-09-30T00:59:59.177Z,99.90
2022-09-30T01:02:27.050Z,99.90
2022-09-30T01:04:55.134Z,99.90
2022-09-30T01:07:25.561Z,99.90
2022-09-30T01:09:53.985Z,99.90
2022-09-30T01:12:30.625Z,99.90
2022-09-30T01:14:59.874Z,99.90
2022-09-30T01:17:37.940Z,99.90
2022-09-30T01:20:40.254Z,99.90
2022-09-30T01:23:27.877Z,99.90
2022-09-30T01:26:17.050Z,99.90
2022-09-30T01:29:29.458Z,99.90
2022-09-30T01:32:07.764Z,99.90
2022-09-30T01:34:44.410Z,99.90
2022-09-30T01:37:21.369Z,99.90
2022-09-30T01:39:57.671Z,99.90
2022-09-30T01:42:32.898Z,99.90
2022-09-30T01:45:05.100Z,99.90
2022-09-30T01:47:41.484Z,99.90
2022-09-30T01:50:13.382Z,99.90
2022-09-30T01:52:47.712Z,99.90
2022-09-30T01:55:22.361Z,99.90
2022-09-30T01:57:58.616Z,99.90
2022-09-30T02:00:27.538Z,99.90
2022-09-30T02:02:59.977Z,99.90
2022-09-30T02:05:35.238Z,99.90
2022-09-30T02:08:07.027Z,99.90
2022-09-30T02:10:38.268Z,99.90
2022-09-30T02:13:13.690Z,99.90
2022-09-30T02:15:47.224Z,99.90
2022-09-30T02:18:21.520Z,99.90
2022-09-30T02:20:55.483Z,99.90
2022-09-30T02:23:27.859Z,99.90
2022-09-30T02:26:05.961Z,99.90
2022-09-30T02:28:36.740Z,99.90
2022-09-30T02:31:07.031Z,99.90
2022-09-30T02:33:41.507Z,99.90
2022-09-30T02:36:13.710Z,99.90
2022-09-30T02:38:45.288Z,99.90
2022-09-30T02:41:16.439Z,99.90
2022-09-30T02:43:44.315Z,99.90
2022-09-30T02:46:19.833Z,99.90
2022-09-30T02:48:55.937Z,99.90
2022-09-30T02:51:30.648Z,99.90
2022-09-30T02:54:04.438Z,99.90
2022-09-30T02:56:45.808Z,99.90
2022-09-30T02:59:14.709Z,99.90
2022-09-30T03:01:43.122Z,99.90
2022-09-30T03:04:15.975Z,99.90
2022-09-30T03:06:43.782Z,99.90
2022-09-30T03:09:11.722Z,99.90
2022-09-30T03:11:39.510Z,99.90
2022-09-30T03:14:38.575Z,99.90
2022-09-30T03:17:53.028Z,99.90
2022-09-30T03:20:37.926Z,99.90
2022-09-30T03:23:21.660Z,99.90
2022-09-30T03:25:57.671Z,99.90
2022-09-30T03:28:30.893Z,99.90
2022-09-30T03:31:06.690Z,99.90
2022-09-30T03:33:42.575Z,99.90
2022-09-30T03:36:17.501Z,99.90
2022-09-30T03:38:50.737Z,99.90
2022-09-30T03:41:23.694Z,99.90
2022-09-30T03:43:55.685Z,99.90
2022-09-30T03:46:27.218Z,99.90
2022-09-30T03:48:58.922Z,99.90
2022-09-30T03:51:30.046Z,99.90
2022-09-30T03:53:59.816Z,99.90
2022-09-30T03:56:29.462Z,99.90
2022-09-30T03:58:57.742Z,99.90
2022-09-30T04:01:25.840Z,99.90
2022-09-30T04:03:54.692Z,99.90
2022-09-30T04:06:24.375Z,99.90
2022-09-30T04:08:54.168Z,99.90
2022-09-30T04:11:22.099Z,99.90
2022-09-30T04:13:49.797Z,99.90
2022-09-30T04:16:17.619Z,99.90
2022-09-30T04:18:45.411Z,99.90
2022-09-30T04:21:14.948Z,99.90
2022-09-30T04:23:43.900Z,99.90
2022-09-30T04:26:15.139Z,99.90
2022-09-30T04:28:43.234Z,99.90
2022-09-30T04:31:13.023Z,99.90
2022-09-30T04:33:41.241Z,99.90
2022-09-30T04:36:09.592Z,99.90
2022-09-30T04:38:37.305Z,99.90
2022-09-30T04:41:08.085Z,99.90
2022-09-30T04:43:37.256Z,99.90
2022-09-30T04:46:05.271Z,99.90
2022-09-30T04:48:33.035Z,99.90
2022-09-30T04:51:01.033Z,99.90
2022-09-30T04:53:29.297Z,99.90
2022-09-30T04:56:00.935Z,99.90
2022-09-30T04:58:30.444Z,99.90
2022-09-30T05:01:03.784Z,99.90
2022-09-30T05:03:31.613Z,99.90
2022-09-30T05:05:59.407Z,99.90
2022-09-30T05:08:27.232Z,99.90
2022-09-30T05:10:57.218Z,99.90
2022-09-30T05:13:26.361Z,99.90
2022-09-30T05:15:54.205Z,99.90
2022-09-30T05:18:26.433Z,99.90
2022-09-30T05:20:55.057Z,99.90
2022-09-30T05:23:22.837Z,99.90
2022-09-30T05:25:51.695Z,99.90
2022-09-30T05:28:19.819Z,99.90
2022-09-30T05:30:49.931Z,99.90
2022-09-30T05:33:18.162Z,99.90
2022-09-30T05:35:47.772Z,99.90
2022-09-30T05:38:15.496Z,99.90
2022-09-30T05:40:43.185Z,99.90
2022-09-30T05:43:11.348Z,99.90
2022-09-30T05:45:39.424Z,99.90
2022-09-30T05:48:07.989Z,99.90
2022-09-30T05:50:35.822Z,99.90
2022-09-30T05:53:04.897Z,99.90
2022-09-30T05:55:37.000Z,99.90
2022-09-30T05:58:06.930Z,99.90
2022-09-30T06:00:34.632Z,99.90
2022-09-30T06:03:02.437Z,99.90
2022-09-30T06:05:30.549Z,99.90
2022-09-30T06:07:58.276Z,99.90
2022-09-30T06:10:27.446Z,99.90
2022-09-30T06:12:55.309Z,99.90
2022-09-30T06:15:23.028Z,99.90
2022-09-30T06:17:53.673Z,99.90
2022-09-30T06:20:21.512Z,99.90
2022-09-30T06:22:49.335Z,99.90
2022-09-30T06:25:17.758Z,99.90
2022-09-30T06:27:47.534Z,99.90
2022-09-30T06:30:15.670Z,99.90
2022-09-30T06:32:43.984Z,99.90
2022-09-30T06:35:12.064Z,99.90
2022-09-30T06:37:39.788Z,99.90
2022-09-30T06:40:08.618Z,99.90
2022-09-30T06:42:36.361Z,99.90
2022-09-30T06:45:06.349Z,99.90
2022-09-30T06:47:34.148Z,99.90
2022-09-30T06:50:03.043Z,99.90
2022-09-30T06:52:30.774Z,99.90
2022-09-30T06:54:58.518Z,99.90
2022-09-30T06:57:27.906Z,99.90
2022-09-30T06:59:55.827Z,99.90
2022-09-30T07:02:25.244Z,99.90
2022-09-30T07:04:53.003Z,99.90
2022-09-30T07:07:21.933Z,99.90
2022-09-30T07:09:55.292Z,99.90
2022-09-30T07:12:25.375Z,99.90
2022-09-30T07:14:53.208Z,99.90
2022-09-30T07:17:20.924Z,99.90
2022-09-30T07:19:52.194Z,99.90
2022-09-30T07:22:29.984Z,99.90
2022-09-30T07:24:58.695Z,99.90
2022-09-30T07:27:27.438Z,99.90
2022-09-30T07:30:09.231Z,99.90
2022-09-30T07:32:39.717Z,99.90
2022-09-30T07:35:09.428Z,99.90
2022-09-30T07:37:37.317Z,99.90
2022-09-30T07:40:09.488Z,99.90
2022-09-30T07:42:40.207Z,99.90
2022-09-30T07:45:08.901Z,99.90
2022-09-30T07:47:36.705Z,99.90
2022-09-30T07:50:05.224Z,99.90
2022-09-30T07:52:34.360Z,99.90
2022-09-30T07:55:02.089Z,99.90
2022-09-30T07:57:30.056Z,99.90
2022-09-30T07:59:57.820Z,99.90
2022-09-30T08:02:25.751Z,99.90
2022-09-30T08:04:53.557Z,99.90
2022-09-30T08:07:21.317Z,99.90
2022-09-30T08:09:50.589Z,99.90
2022-09-30T08:12:18.401Z,99.90
2022-09-30T08:14:46.241Z,99.90
2022-09-30T08:17:14.135Z,99.90
2022-09-30T08:19:44.575Z,99.90
2022-09-30T08:22:13.974Z,99.90
2022-09-30T08:24:42.028Z,99.90
2022-09-30T08:27:11.272Z,99.90
2022-09-30T08:29:56.647Z,99.90
2022-09-30T08:32:26.116Z,99.90
2022-09-30T08:34:53.885Z,95.60
2022-09-30T08:37:21.678Z,78.20
2022-09-30T08:39:49.502Z,63.50
2022-09-30T08:42:38.783Z,57.60
2022-09-30T08:45:19.089Z,53.50
2022-09-30T08:47:54.138Z,50.50
2022-09-30T08:50:29.759Z,48.70
2022-09-30T08:53:02.168Z,47.10
2022-09-30T08:55:37.171Z,45.60
2022-09-30T08:58:07.719Z,45.00
2022-09-30T09:00:36.648Z,44.70
2022-09-30T09:03:05.015Z,44.00
2022-09-30T09:05:48.616Z,43.60
2022-09-30T09:08:27.351Z,42.50
2022-09-30T09:11:06.205Z,42.20
2022-09-30T09:13:46.251Z,41.70
2022-09-30T09:16:23.523Z,41.30
2022-09-30T09:18:59.846Z,41.70
2022-09-30T09:21:41.796Z,42.30
2022-09-30T09:24:16.954Z,41.20
2022-09-30T09:26:46.150Z,42.30
2022-09-30T09:29:29.122Z,42.10
2022-09-30T09:31:57.576Z,41.60
2022-09-30T09:34:27.055Z,41.10
2022-09-30T09:37:07.366Z,41.10
2022-09-30T09:40:07.769Z,41.20
2022-09-30T09:42:51.717Z,40.10
2022-09-30T09:45:27.899Z,39.90
2022-09-30T09:47:57.231Z,40.80
2022-09-30T09:50:32.603Z,41.30
2022-09-30T09:53:16.799Z,40.00
2022-09-30T09:55:45.121Z,41.00
2022-09-30T09:58:14.944Z,39.70
2022-09-30T10:01:06.322Z,41.40
2022-09-30T10:03:37.451Z,39.60
2022-09-30T10:06:09.097Z,41.10
2022-09-30T10:08:39.226Z,41.80
2022-09-30T10:11:09.026Z,40.80
2022-09-30T10:13:43.693Z,41.60
2022-09-30T10:16:28.716Z,43.50
2022-09-30T10:18:56.682Z,43.80
2022-09-30T10:21:26.766Z,44.00
2022-09-30T10:23:55.329Z,43.20
2022-09-30T10:26:25.215Z,43.60
2022-09-30T10:28:54.290Z,44.60
2022-09-30T10:31:27.098Z,45.70
2022-09-30T10:34:00.679Z,49.60
2022-09-30T10:36:33.243Z,52.00
2022-09-30T10:39:06.594Z,53.60
2022-09-30T10:41:36.901Z,58.40
2022-09-30T10:44:07.314Z,60.80
2022-09-30T10:46:39.845Z,62.70
2022-09-30T10:49:25.683Z,67.30
2022-09-30T10:51:53.743Z,68.70
2022-09-30T10:54:48.706Z,70.40
2022-09-30T10:57:19.775Z,69.90
2022-09-30T10:59:48.976Z,70.00
2022-09-30T11:02:26.585Z,72.00
2022-09-30T11:05:03.444Z,71.30
2022-09-30T11:07:34.617Z,73.80
2022-09-30T11:10:07.676Z,76.20
2022-09-30T11:12:44.487Z,74.60
2022-09-30T11:15:20.324Z,78.10
2022-09-30T11:17:55.787Z,78.00
2022-09-30T11:20:27.567Z,74.20
2022-09-30T11:23:00.007Z,77.20
2022-09-30T11:25:36.011Z,77.50
2022-09-30T11:28:16.653Z,77.60
2022-09-30T11:30:54.587Z,79.10
2022-09-30T11:34:01.202Z,74.30
2022-09-30T11:36:42.156Z,77.00
2022-09-30T11:39:38.031Z,85.90
2022-09-30T11:42:14.377Z,79.20
2022-09-30T11:44:45.643Z,84.20
2022-09-30T11:47:29.071Z,75.00
2022-09-30T11:50:16.863Z,77.80
2022-09-30T11:52:54.977Z,75.30
2022-09-30T11:55:35.803Z,74.60
2022-09-30T11:58:28.475Z,74.70
2022-09-30T12:00:59.891Z,73.10
2022-09-30T12:03:31.305Z,71.70
2022-09-30T12:06:04.245Z,74.90
2022-09-30T12:08:37.173Z,73.70
2022-09-30T12:11:11.555Z,73.10
2022-09-30T12:13:43.531Z,73.10
2022-09-30T12:16:20.004Z,75.20
2022-09-30T12:18:52.809Z,78.90
2022-09-30T12:21:24.200Z,82.40
2022-09-30T12:23:58.838Z,79.70
2022-09-30T12:26:27.161Z,76.90
2022-09-30T12:29:15.658Z,79.10
2022-09-30T12:32:01.213Z,72.50
2022-09-30T12:34:43.321Z,72.30
2022-09-30T12:37:34.529Z,71.50
2022-09-30T12:40:33.051Z,72.30
2022-09-30T12:43:33.625Z,74.50
2022-09-30T12:46:16.765Z,72.10
2022-09-30T12:48:47.864Z,72.20
2022-09-30T12:51:25.724Z,71.30
2022-09-30T12:54:04.534Z,69.30
2022-09-30T12:56:37.571Z,71.50
2022-09-30T12:59:05.559Z,71.60
2022-09-30T13:01:37.987Z,72.00
2022-09-30T13:04:18.662Z,70.60
2022-09-30T13:07:14.600Z,70.00
2022-09-30T13:10:02.251Z,72.70
2022-09-30T13:12:43.173Z,74.40
2022-09-30T13:15:39.210Z,71.60
2022-09-30T13:18:45.086Z,73.20
2022-09-30T13:21:22.530Z,74.20
2022-09-30T13:23:51.310Z,76.00
2022-09-30T13:26:39.150Z,77.80
2022-09-30T13:29:43.575Z,78.40
2022-09-30T13:32:12.687Z,83.10
2022-09-30T13:34:56.634Z,80.20
2022-09-30T13:37:38.786Z,82.70
2022-09-30T13:40:28.853Z,85.00
2022-09-30T13:43:14.873Z,84.90
2022-09-30T13:45:45.504Z,81.70
2022-09-30T13:48:20.481Z,86.30
2022-09-30T13:50:50.388Z,82.70
2022-09-30T13:53:26.040Z,85.00
2022-09-30T13:55:56.062Z,87.40
2022-09-30T13:58:55.976Z,90.20
2022-09-30T14:01:35.043Z,92.00
2022-09-30T14:04:25.939Z,89.60
2022-09-30T14:07:07.391Z,90.70
2022-09-30T14:09:54.008Z,90.80
2022-09-30T14:12:38.583Z,90.30
2022-09-30T14:15:38.165Z,94.00
2022-09-30T14:18:25.815Z,92.70
2022-09-30T14:21:09.308Z,92.70
2022-09-30T14:23:37.600Z,93.90
2022-09-30T14:26:18.165Z,95.40
2022-09-30T14:28:54.360Z,96.10
2022-09-30T14:31:22.318Z,98.90
2022-09-30T14:33:52.052Z,93.60
2022-09-30T14:36:23.373Z,93.30
2022-09-30T14:38:55.359Z,93.40
2022-09-30T14:41:24.974Z,96.60
2022-09-30T14:43:56.568Z,94.50
2022-09-30T14:46:30.956Z,96.20
2022-09-30T14:49:01.899Z,99.80
2022-09-30T14:51:38.190Z,99.90
2022-09-30T14:54:06.398Z,99.90
2022-09-30T14:56:36.472Z,99.90
2022-09-30T14:59:17.593Z,99.90
2022-09-30T15:01:48.015Z,99.90
2022-09-30T15:04:17.828Z,99.90
2022-09-30T15:06:50.338Z,99.90
2022-09-30T15:09:21.558Z,99.90
2022-09-30T15:11:49.413Z,99.90
2022-09-30T15:14:20.455Z,99.90
2022-09-30T15:16:49.831Z,99.90
2022-09-30T15:19:21.514Z,99.90
2022-09-30T15:21:52.952Z,99.90
2022-09-30T15:24:23.405Z,99.90
2022-09-30T15:26:53.268Z,99.90
2022-09-30T15:29:21.025Z,99.90
2022-09-30T15:31:52.911Z,99.90
2022-09-30T15:34:24.265Z,99.90
2022-09-30T15:37:00.386Z,99.90
2022-09-30T15:39:51.464Z,99.90
2022-09-30T15:42:35.348Z,99.90
2022-09-30T15:45:03.929Z,99.90
2022-09-30T15:47:32.028Z,99.90
2022-09-30T15:50:00.501Z,99.90
2022-09-30T15:52:37.697Z,99.90
2022-09-30T15:55:42.285Z,99.90
2022-09-30T15:58:33.693Z,99.90
2022-09-30T16:01:15.741Z,99.90
2022-09-30T16:03:50.996Z,99.90
2022-09-30T16:06:25.418Z,99.90
2022-09-30T16:09:01.311Z,99.90
2022-09-30T16:11:32.610Z,99.90
2022-09-30T16:14:03.055Z,99.90
2022-09-30T16:16:33.127Z,99.90
2022-09-30T16:19:03.047Z,99.90
2022-09-30T16:21:45.246Z,99.90
2022-09-30T16:24:57.721Z,99.90
2022-09-30T16:27:32.712Z,99.90
2022-09-30T16:30:01.281Z,99.90
2022-09-30T16:32:33.223Z,99.90
2022-09-30T16:35:01.236Z,99.90
2022-09-30T16:37:28.992Z,99.90
2022-09-30T16:39:59.374Z,99.90
2022-09-30T16:42:27.214Z,99.90
2022-09-30T16:44:56.419Z,99.90
2022-09-30T16:47:24.133Z,99.90
2022-09-30T16:49:52.073Z,99.90
2022-09-30T16:52:19.854Z,99.90
2022-09-30T16:54:47.686Z,99.90
2022-09-30T16:57:16.624Z,99.90
2022-09-30T16:59:44.839Z,99.90
2022-09-30T17:02:16.032Z,99.90
2022-09-30T17:04:45.488Z,99.90
2022-09-30T17:07:14.916Z,99.90
2022-09-30T17:09:45.738Z,99.90
2022-09-30T17:12:13.741Z,99.90
2022-09-30T17:14:43.798Z,99.90
2022-09-30T17:17:13.798Z,99.90
2022-09-30T17:19:43.074Z,99.90
2022-09-30T17:22:10.789Z,99.90
2022-09-30T17:24:38.516Z,99.90
2022-09-30T17:27:06.722Z,99.90
2022-09-30T17:29:34.432Z,99.90
2022-09-30T17:32:02.769Z,99.90
2022-09-30T17:34:30.912Z,99.90
2022-09-30T17:37:00.087Z,99.90
2022-09-30T17:39:28.623Z,99.90
2022-09-30T17:42:13.736Z,99.90
2022-09-30T17:44:41.590Z,99.90
2022-09-30T17:47:09.423Z,99.90
2022-09-30T17:49:37.600Z,99.90
2022-09-30T17:52:06.744Z,99.90
2022-09-30T17:54:35.027Z,99.90
2022-09-30T17:57:02.882Z,99.90
2022-09-30T17:59:30.623Z,99.90
2022-09-30T18:01:58.417Z,99.90
2022-09-30T18:04:26.961Z,99.90
2022-09-30T18:06:55.245Z,99.90
2022-09-30T18:09:24.652Z,99.90
2022-09-30T18:11:54.460Z,99.90
2022-09-30T18:14:22.206Z,99.90
2022-09-30T18:16:49.964Z,99.90
2022-09-30T18:19:17.712Z,99.90
2022-09-30T18:21:45.443Z,99.90
2022-09-30T18:24:13.312Z,99.90
2022-09-30T18:26:43.271Z,99.90
2022-09-30T18:29:10.979Z,99.90
2022-09-30T18:31:39.606Z,99.90
2022-09-30T18:34:07.744Z,99.90
2022-09-30T18:36:37.375Z,99.90
2022-09-30T18:39:05.584Z,99.90
2022-09-30T18:41:35.710Z,99.90
2022-09-30T18:44:05.517Z,99.90
2022-09-30T18:46:33.385Z,99.90
2022-09-30T18:49:01.616Z,99.90
2022-09-30T18:51:30.267Z,99.90
2022-09-30T18:54:00.808Z,99.90
2022-09-30T18:56:31.736Z,99.90
2022-09-30T18:59:00.468Z,99.90
2022-09-30T19:01:29.743Z,99.90
2022-09-30T19:03:57.630Z,99.90
2022-09-30T19:06:25.641Z,99.90
2022-09-30T19:08:53.371Z,99.90
2022-09-30T19:11:22.950Z,99.90
2022-09-30T19:13:55.703Z,99.90
2022-09-30T19:16:25.318Z,99.90
2022-09-30T19:18:55.337Z,99.90
2022-09-30T19:21:23.491Z,99.90
2022-09-30T19:23:51.234Z,99.90
2022-09-30T19:26:19.426Z,99.90
2022-09-30T19:28:47.650Z,99.90
2022-09-30T19:31:19.535Z,99.90
2022-09-30T19:33:56.051Z,99.90
2022-09-30T19:36:26.938Z,99.90
2022-09-30T19:39:05.912Z,99.90
2022-09-30T19:41:37.572Z,99.90
2022-09-30T19:44:05.460Z,99.90
2022-09-30T19:46:33.235Z,99.90
2022-09-30T19:49:01.360Z,99.90
2022-09-30T19:51:32.954Z,99.90
2022-09-30T19:54:06.861Z,99.90
2022-09-30T19:56:35.957Z,99.90
2022-09-30T19:59:04.284Z,99.90
2022-09-30T20:01:34.552Z,99.90
2022-09-30T20:04:05.046Z,99.90
2022-09-30T20:06:35.526Z,99.90
2022-09-30T20:09:06.209Z,99.90
2022-09-30T20:11:36.782Z,99.90
2022-09-30T20:14:25.068Z,99.90
2022-09-30T20:16:54.217Z,99.90
2022-09-30T20:19:23.089Z,99.90
2022-09-30T20:21:54.889Z,99.90
2022-09-30T20:24:23.194Z,99.90
2022-09-30T20:26:51.285Z,99.90
2022-09-30T20:29:20.545Z,99.90
2022-09-30T20:31:49.263Z,99.90
2022-09-30T20:34:18.958Z,99.90
2022-09-30T20:36:47.649Z,99.90
2022-09-30T20:39:16.791Z,99.90
2022-09-30T20:41:47.657Z,99.90
2022-09-30T20:44:19.900Z,99.90
2022-09-30T20:46:47.618Z,99.90
2022-09-30T20:49:15.350Z,99.90
2022-09-30T20:51:43.140Z,99.90
2022-09-30T20:54:10.998Z,99.90
2022-09-30T20:57:05.937Z,99.90
2022-09-30T20:59:27.803Z,99.90
2022-09-30T21:01:55.626Z,99.90
2022-09-30T21:04:23.411Z,99.90
2022-09-30T21:06:51.127Z,99.90
2022-09-30T21:09:18.904Z,99.90
2022-09-30T21:11:48.008Z,99.90
2022-09-30T21:14:18.005Z,99.90
2022-09-30T21:16:45.843Z,99.90
2022-09-30T21:19:13.678Z,99.90
2022-09-30T21:21:41.533Z,99.90
2022-09-30T21:24:09.366Z,99.90
2022-09-30T21:26:37.083Z,99.90
2022-09-30T21:29:06.274Z,99.90
2022-09-30T21:31:35.265Z,99.90
2022-09-30T21:34:03.847Z,99.90
2022-09-30T21:36:32.205Z,99.90
2022-09-30T21:39:02.277Z,99.90
2022-09-30T21:41:32.096Z,99.90
2022-09-30T21:44:00.396Z,99.90
2022-09-30T21:46:29.531Z,99.90
2022-09-30T21:49:05.681Z,99.90
2022-09-30T21:51:35.911Z,99.90
2022-09-30T21:54:03.867Z,99.90
2022-09-30T21:56:31.644Z,99.90
2022-09-30T21:58:59.492Z,99.90
2022-09-30T22:01:27.299Z,99.90
2022-09-30T22:03:56.639Z,99.90
2022-09-30T22:06:24.503Z,99.90
2022-09-30T22:08:52.321Z,99.90
2022-09-30T22:11:24.838Z,99.90
2022-09-30T22:13:55.417Z,99.90
2022-09-30T22:16:26.069Z,99.90
2022-09-30T22:18:54.837Z,99.90
2022-09-30T22:21:24.095Z,99.90
2022-09-30T22:23:52.050Z,99.90
2022-09-30T22:26:22.087Z,99.90
2022-09-30T22:28:56.928Z,99.90
2022-09-30T22:31:26.850Z,99.90
2022-09-30T22:34:13.544Z,99.90
2022-09-30T22:37:00.623Z,99.90
2022-09-30T22:39:28.551Z,99.90
2022-09-30T22:41:57.929Z,99.90
2022-09-30T22:44:27.996Z,99.90
2022-09-30T22:46:57.553Z,99.90
2022-09-30T22:49:25.868Z,99.90
2022-09-30T22:51:56.802Z,99.90
2022-09-30T22:54:25.927Z,99.90
2022-09-30T22:56:54.989Z,99.90
2022-09-30T22:59:23.881Z,99.90
2022-09-30T23:01:52.004Z,99.90
2022-09-30T23:04:19.978Z,99.90
2022-09-30T23:06:49.367Z,99.90
2022-09-30T23:09:20.733Z,99.90
2022-09-30T23:11:51.116Z,99.90
2022-09-30T23:14:18.847Z,99.90
2022-09-30T23:16:46.964Z,99.90
2022-09-30T23:19:14.772Z,99.90
2022-09-30T23:21:42.508Z,99.90
2022-09-30T23:24:10.669Z,99.90
2022-09-30T23:26:39.786Z,99.90
2022-09-30T23:29:11.311Z,99.90
2022-09-30T23:31:39.676Z,99.90
2022-09-30T23:34:08.618Z,99.90
2022-09-30T23:36:37.847Z,99.90
2022-09-30T23:39:09.257Z,99.90
2022-09-30T23:41:37.496Z,99.90
2022-09-30T23:44:09.662Z,99.90
2022-09-30T23:46:37.486Z,99.90
2022-09-30T23:49:05.268Z,99.90
2022-09-30T23:51:34.257Z,99.90
2022-09-30T23:54:02.887Z,99.90
2022-09-30T23:56:32.114Z,99.90
2022-09-30T23:58:59.934Z,99.90
